Time;durP1;ratioP1;P1;durP2;ratioP2;P2;SDS_P1;SDS_P2;PMS_P1;PMS_P2;Temp;Humidity;BMP_temperature;BMP_pressure;BME280_temperature;BME280_humidity;BME280_pressure;Samples;Min_cycle;Max_cycle;Signal;HPM_P1;HPM_P2
2023/12/20 00:00:46;;;;;;;187.85;106.90;;;;;;;-0.97;88.79;97908.84;10322383;28;21343;-50
2023/12/20 00:05:45;;;;;;;173.43;100.38;;;;;;;-1.03;88.96;97897.53;10322102;28;20037;-51
2023/12/20 00:10:44;;;;;;;170.23;96.38;;;;;;;-0.94;88.45;97904.72;10323082;28;20116;-49
2023/12/20 00:15:43;;;;;;;188.80;104.45;;;;;;;-0.73;88.35;97934.56;10320931;28;20065;-48
2023/12/20 00:20:42;;;;;;;197.70;109.75;;;;;;;-0.89;88.75;97899.84;10322876;28;20056;-49
2023/12/20 00:25:41;;;;;;;223.85;122.05;;;;;;;-1.91;88.19;97727.16;10330160;28;20444;-49
2023/12/20 00:30:40;;;;;;;213.57;116.60;;;;;;;-0.91;88.29;97894.69;10325992;28;20473;-50
2023/12/20 00:35:40;;;;;;;230.48;126.28;;;;;;;-0.85;88.34;97909.38;10319336;28;20536;-48
2023/12/20 00:40:38;;;;;;;;;;;;;;;-0.96;89.33;97903.78;10322399;28;20049;-48
2023/12/20 00:45:37;;;;;;;241.70;133.23;;;;;;;-0.98;89.11;97905.38;10319908;28;19917;-48
2023/12/20 00:50:36;;;;;;;270.55;128.57;;;;;;;-1.13;89.02;97885.19;10320554;28;20033;-48
2023/12/20 00:55:35;;;;;;;174.77;93.63;;;;;;;-1.11;89.24;97883.59;10319530;28;20036;-49
2023/12/20 01:00:34;;;;;;;153.05;80.07;;;;;;;-1.11;88.91;97857.25;10321690;28;20116;-48
2023/12/20 01:05:33;;;;;;;151.50;80.05;;;;;;;-1.15;88.37;97852.81;10323119;28;20112;-49
2023/12/20 01:10:32;;;;;;;139.70;75.57;;;;;;;-1.22;89.08;97860.16;10322613;28;20044;-48
2023/12/20 01:15:31;;;;;;;130.45;68.80;;;;;;;-1.30;88.35;97848.75;10327358;28;20136;-48
2023/12/20 01:20:30;;;;;;;121.43;68.38;;;;;;;-1.31;88.97;97846.13;10328622;28;20060;-48
2023/12/20 01:25:29;;;;;;;151.77;80.30;;;;;;;-1.43;88.40;97831.16;10328427;28;20491;-48
2023/12/20 01:30:28;;;;;;;132.13;69.70;;;;;;;-1.50;88.30;97827.44;10329703;28;20711;-48
2023/12/20 01:35:27;;;;;;;124.00;70.07;;;;;;;-1.45;88.61;97812.41;10328102;28;20128;-48
2023/12/20 01:40:26;;;;;;;;;;;;;;;-1.30;88.38;97830.94;10330295;28;20057;-48
2023/12/20 01:45:24;;;;;;;146.48;86.53;;;;;;;-1.66;88.54;97777.53;10328550;28;21384;-48
2023/12/20 01:50:23;;;;;;;165.35;95.47;;;;;;;-1.30;89.07;97813.13;10329247;28;20029;-48
2023/12/20 01:55:23;;;;;;;153.40;87.13;;;;;;;-1.25;89.12;97809.09;10328374;28;20113;-48
2023/12/20 02:00:23;;;;;;;146.57;81.53;;;;;;;-1.29;88.91;97786.84;10328864;28;20072;-48
2023/12/20 02:05:22;;;;;;;130.85;76.25;;;;;;;-1.19;88.66;97795.78;10324855;28;20108;-47
2023/12/20 02:10:21;;;;;;;;;;;;;;;-1.18;88.29;97792.44;10329405;28;20076;-49
2023/12/20 02:15:20;;;;;;;140.05;75.22;;;;;;;-1.62;88.65;97707.28;10326946;28;19913;-48
2023/12/20 02:20:19;;;;;;;142.40;72.40;;;;;;;-1.41;88.85;97740.47;10326257;28;20081;-48
2023/12/20 02:25:18;;;;;;;143.65;72.65;;;;;;;-1.31;89.25;97754.50;10325502;28;20048;-48
2023/12/20 02:30:17;;;;;;;165.57;75.93;;;;;;;-1.25;89.61;97748.00;10324200;28;20500;-48
2023/12/20 02:35:16;;;;;;;130.80;65.15;;;;;;;-2.81;89.04;97497.59;10324466;28;20065;-49
2023/12/20 02:40:15;;;;;;;156.20;71.88;;;;;;;-1.99;89.37;97644.56;10327011;28;20138;-48
2023/12/20 02:45:14;;;;;;;155.57;77.43;;;;;;;-1.82;90.03;97719.09;10325643;28;20030;-47
2023/12/20 02:50:13;;;;;;;;;;;;;;;-1.73;89.64;97744.06;10351320;28;20456;-48
2023/12/20 02:55:12;;;;;;;101.07;51.30;;;;;;;-2.10;89.18;97727.97;10324902;28;20332;-48
2023/12/20 03:00:11;;;;;;;112.50;48.05;;;;;;;-2.67;90.10;97676.06;10326073;28;20033;-48
2023/12/20 03:05:10;;;;;;;95.43;47.55;;;;;;;-2.31;89.45;97706.59;10328298;28;20072;-48
2023/12/20 03:10:09;;;;;;;105.38;52.05;;;;;;;-2.45;89.12;97678.00;10337059;28;20112;-51
2023/12/20 03:15:08;;;;;;;;;;;;;;;-2.12;89.02;97721.94;10326388;28;20069;-48
2023/12/20 03:20:08;;;;;;;100.78;54.03;;;;;;;-2.30;88.90;97705.81;10325263;28;19913;-48
2023/12/20 03:25:07;;;;;;;100.57;52.10;;;;;;;-2.35;89.08;97686.91;10324575;28;20769;-49
2023/12/20 03:30:07;;;;;;;93.85;48.67;;;;;;;-2.27;88.21;97693.22;10324198;28;20061;-48
2023/12/20 03:35:06;;;;;;;135.18;65.68;;;;;;;-2.44;89.13;97687.34;10323257;28;20069;-48
2023/12/20 03:40:05;;;;;;;;;;;;;;;-2.42;89.23;97702.66;10342777;28;20464;-48
2023/12/20 03:45:04;;;;;;;123.05;60.50;;;;;;;-2.50;89.52;97679.41;10320556;28;20577;-48
2023/12/20 03:50:04;;;;;;;130.45;63.22;;;;;;;-2.36;89.06;97687.69;10325362;28;20547;-48
2023/12/20 03:55:03;;;;;;;120.25;61.47;;;;;;;-2.38;89.13;97685.09;10324277;28;20088;-49
2023/12/20 04:00:02;;;;;;;;;;;;;;;-2.23;89.28;97696.81;10324863;28;20053;-49
2023/12/20 04:05:01;;;;;;;115.18;58.58;;;;;;;-2.45;88.51;97654.22;10323923;28;20004;-49
2023/12/20 04:10:00;;;;;;;116.07;62.33;;;;;;;-2.48;89.18;97649.88;10323997;28;20116;-50
2023/12/20 04:14:59;;;;;;;116.55;62.05;;;;;;;-2.46;89.55;97660.13;10321371;28;20141;-48
2023/12/20 04:19:58;;;;;;;120.70;63.78;;;;;;;-2.47;89.48;97649.09;10323166;28;20022;-51
2023/12/20 04:24:57;;;;;;;120.82;68.15;;;;;;;-2.55;89.52;97630.91;10323489;28;20124;-48
2023/12/20 04:29:55;;;;;;;120.25;64.70;;;;;;;-2.73;89.33;97624.97;10324003;28;20044;-48
2023/12/20 04:34:54;;;;;;;137.70;79.78;;;;;;;-2.76;89.47;97625.66;10321904;28;20516;-48
2023/12/20 04:39:54;;;;;;;149.48;78.95;;;;;;;-2.76;89.48;97632.41;10323343;28;20485;-49
2023/12/20 04:44:53;;;;;;;129.68;63.42;;;;;;;-2.91;88.70;97610.56;10321942;28;20116;-48
2023/12/20 04:49:52;;;;;;;94.50;51.38;;;;;;;-3.24;88.81;97565.78;10329607;28;20022;-49
2023/12/20 04:54:51;;;;;;;94.53;50.47;;;;;;;-2.82;89.03;97621.97;10330392;28;20504;-50
2023/12/20 04:59:50;;;;;;;108.90;56.05;;;;;;;-2.74;88.56;97608.84;10330490;28;20120;-50
2023/12/20 05:04:49;;;;;;;116.25;61.85;;;;;;;-2.91;88.94;97602.94;10330667;28;20047;-51
2023/12/20 05:09:48;;;;;;;150.63;74.85;;;;;;;-3.43;88.63;97505.63;10330393;28;20069;-49
2023/12/20 05:14:47;;;;;;;150.80;70.30;;;;;;;-3.33;89.55;97559.44;10330477;28;20049;-48
2023/12/20 05:19:46;;;;;;;160.07;72.70;;;;;;;-3.15;89.71;97609.38;10329741;28;20802;-48
2023/12/20 05:24:45;;;;;;;128.55;66.82;;;;;;;-3.26;89.61;97595.28;10329135;28;20127;-49
2023/12/20 05:29:44;;;;;;;131.90;63.50;;;;;;;-4.50;89.65;97379.44;10328306;28;20039;-49
2023/12/20 05:34:43;;;;;;;118.70;67.10;;;;;;;-3.47;89.77;97537.56;10326712;28;20112;-49
2023/12/20 05:39:42;;;;;;;134.07;71.88;;;;;;;-3.17;89.13;97556.00;10329397;28;20064;-49
2023/12/20 05:44:40;;;;;;;170.00;90.28;;;;;;;-3.23;89.21;97548.06;10327056;28;20120;-51
2023/12/20 05:49:39;;;;;;;192.45;102.85;;;;;;;-3.16;89.14;97554.31;10329274;28;20033;-49
2023/12/20 05:54:38;;;;;;;196.32;108.07;;;;;;;-3.33;88.97;97503.59;10328039;28;20030;-49
2023/12/20 05:59:37;;;;;;;191.40;103.53;;;;;;;-3.14;89.42;97532.41;10324645;28;20832;-49
2023/12/20 06:04:36;;;;;;;193.02;101.30;;;;;;;-3.09;88.90;97533.50;10324585;28;20022;-49
2023/12/20 06:09:35;;;;;;;123.38;61.28;;;;;;;-3.24;88.63;97553.09;10326748;28;20034;-49
2023/12/20 06:14:34;;;;;;;;;;;;;;;-3.54;90.14;97568.50;10327098;28;20065;-49
2023/12/20 06:19:33;;;;;;;95.57;49.00;;;;;;;-3.88;89.57;97488.19;10322714;28;20606;-50
2023/12/20 06:24:33;;;;;;;131.05;60.22;;;;;;;-3.21;88.71;97599.75;10325009;28;20487;-49
2023/12/20 06:29:34;;;;;;;142.52;66.00;;;;;;;-3.39;88.89;97512.56;10325162;28;20125;-49
2023/12/20 06:34:33;;;;;;;130.43;61.60;;;;;;;-3.02;89.11;97570.22;10324068;28;20057;-49
2023/12/20 06:39:33;;;;;;;133.35;66.90;;;;;;;-3.10;88.79;97521.63;10323438;28;20108;-49
2023/12/20 06:44:32;;;;;;;144.70;74.22;;;;;;;-3.09;88.92;97528.44;10313952;28;20523;-48
2023/12/20 06:49:31;;;;;;;202.23;101.88;;;;;;;-3.13;88.76;97536.72;10321713;28;20125;-49
2023/12/20 06:54:30;;;;;;;201.30;114.00;;;;;;;-3.05;89.50;97550.63;10331578;28;20038;-49
2023/12/20 06:59:29;;;;;;;215.70;120.82;;;;;;;-3.01;89.78;97506.84;10321935;28;20552;-49
2023/12/20 07:04:28;;;;;;;221.88;120.32;;;;;;;-2.71;89.39;97512.50;10322216;28;20164;-49
2023/12/20 07:09:27;;;;;;;250.55;137.40;;;;;;;-2.53;89.01;97506.50;10321941;28;20025;-50
2023/12/20 07:14:27;;;;;;;240.18;132.95;;;;;;;-2.24;89.44;97519.66;10322574;28;20120;-49
2023/12/20 07:19:26;;;;;;;233.75;127.65;;;;;;;-2.49;89.29;97457.59;10323570;28;20180;-49
2023/12/20 07:24:25;;;;;;;220.85;126.63;;;;;;;-2.47;89.21;97424.66;10315548;28;20122;-48
2023/12/20 07:29:24;;;;;;;225.57;123.32;;;;;;;-2.29;88.62;97405.09;10311217;28;20042;-49
2023/12/20 07:34:23;;;;;;;223.30;125.00;;;;;;;-1.83;88.46;97480.81;10314349;28;20108;-49
2023/12/20 07:39:22;;;;;;;247.88;138.57;;;;;;;-1.79;88.79;97423.31;10322648;28;20032;-49
2023/12/20 07:44:21;;;;;;;277.80;162.20;;;;;;;-1.93;89.07;97389.69;10319518;28;20116;-50
2023/12/20 07:49:20;;;;;;;256.73;152.88;;;;;;;-1.06;88.40;97489.06;10318950;28;20041;-50
2023/12/20 07:54:19;;;;;;;271.02;167.35;;;;;;;-1.08;88.13;97429.56;10319405;28;20515;-49
2023/12/20 07:59:18;;;;;;;282.92;168.63;;;;;;;-0.61;89.06;97456.00;10319174;28;20570;-49
2023/12/20 08:04:17;;;;;;;283.17;174.77;;;;;;;-0.46;88.83;97425.09;10318225;28;20037;-49
2023/12/20 08:09:16;;;;;;;279.48;171.50;;;;;;;-0.00;88.16;97416.56;10321205;28;20049;-49
2023/12/20 08:14:15;;;;;;;301.40;187.23;;;;;;;0.65;88.35;97446.00;10319929;28;20043;-51
2023/12/20 08:19:14;;;;;;;277.33;177.95;;;;;;;0.79;87.24;97454.09;10322241;28;20469;-48
2023/12/20 08:24:13;;;;;;;274.13;175.05;;;;;;;1.06;86.68;97402.13;10327011;28;20457;-49
2023/12/20 08:29:13;;;;;;;266.17;170.20;;;;;;;1.09;86.24;97353.69;10328005;28;20047;-50
2023/12/20 08:34:14;;;;;;;267.58;169.07;;;;;;;1.87;85.48;97416.41;10328161;28;20129;-49
2023/12/20 08:39:13;;;;;;;245.48;163.45;;;;;;;2.16;85.33;97412.97;10330658;28;20059;-51
2023/12/20 08:44:13;;;;;;;258.40;163.80;;;;;;;2.44;83.51;97375.28;10328418;28;20025;-49
2023/12/20 08:49:12;;;;;;;257.05;174.48;;;;;;;2.54;83.82;97335.38;10324141;28;20467;-50
2023/12/20 08:54:13;;;;;;;252.43;169.57;;;;;;;2.90;83.38;97329.34;10328783;28;20113;-51
2023/12/20 08:59:12;;;;;;;246.10;163.90;;;;;;;3.31;82.07;97304.59;10319523;28;20155;-50
2023/12/20 09:04:11;;;;;;;;;;;;;;;4.12;81.72;97346.31;10327467;28;20116;-49
2023/12/20 09:09:13;;;;;;;225.30;151.65;;;;;;;4.37;81.30;97315.94;10329411;28;19923;-52
2023/12/20 09:14:12;;;;;;;213.43;144.38;;;;;;;4.67;78.99;97265.00;10324392;28;20120;-49
2023/12/20 09:19:11;;;;;;;198.07;131.82;;;;;;;5.38;78.84;97299.38;10327413;28;20029;-49
2023/12/20 09:24:10;;;;;;;188.77;133.43;;;;;;;5.50;78.27;97265.22;10326770;28;20052;-51
2023/12/20 09:29:10;;;;;;;188.50;133.63;;;;;;;5.90;75.87;97250.19;10327881;28;20091;-50
2023/12/20 09:34:09;;;;;;;179.07;131.80;;;;;;;6.32;74.43;97277.16;10325513;28;20108;-52
2023/12/20 09:39:08;;;;;;;181.02;131.23;;;;;;;6.02;72.77;97179.88;10326495;28;20029;-53
2023/12/20 09:44:10;;;;;;;187.60;136.23;;;;;;;6.84;71.53;97249.16;10323067;28;20112;-52
2023/12/20 09:49:10;;;;;;;181.50;135.57;;;;;;;7.01;71.92;97247.53;10323612;28;20068;-50
2023/12/20 09:54:09;;;;;;;176.40;131.35;;;;;;;5.80;70.29;97016.66;10321317;28;20084;-50
2023/12/20 09:59:09;;;;;;;183.82;129.35;;;;;;;6.64;68.70;97148.50;10320991;28;20116;-49
2023/12/20 10:04:12;;;;;;;185.13;134.93;;;;;;;7.15;69.39;97219.22;10325154;28;20121;-50
2023/12/20 10:09:12;;;;;;;187.88;135.18;;;;;;;7.28;68.84;97207.19;10322130;28;20456;-49
2023/12/20 10:14:11;;;;;;;101.30;71.13;;;;;;;7.01;72.90;97197.66;10322801;28;20073;-51
2023/12/20 10:19:10;;;;;;;103.28;74.38;;;;;;;7.14;73.16;97162.44;10327654;28;20044;-49
2023/12/20 10:24:16;;;;;;;140.77;100.90;;;;;;;7.72;72.55;97187.56;10321565;28;20472;-50
2023/12/20 10:29:15;;;;;;;192.80;133.82;;;;;;;8.05;71.44;97172.03;10324110;28;20057;-50
2023/12/20 10:34:14;;;;;;;234.07;174.10;;;;;;;8.22;69.02;97147.91;10325012;28;20108;-51
2023/12/20 10:39:15;;;;;;;252.85;178.07;;;;;;;8.29;67.62;97136.69;10323854;28;20029;-51
2023/12/20 10:44:14;;;;;;;245.90;180.65;;;;;;;8.58;66.97;97122.84;10325733;28;20060;-48
2023/12/20 10:49:14;;;;;;;219.00;160.88;;;;;;;8.98;67.67;97153.75;10325714;28;20060;-48
2023/12/20 10:54:13;;;;;;;192.80;140.95;;;;;;;8.90;68.04;97084.78;10320301;28;20552;-49
2023/12/20 10:59:16;;;;;;;168.63;125.05;;;;;;;9.43;68.65;97116.41;10318691;28;20064;-49
2023/12/20 11:04:25;;;;;;;159.32;115.40;;;;;;;9.96;65.82;97129.84;10319070;28;20068;-50
2023/12/20 11:09:27;;;;;;;64.63;47.22;;;;;;;10.13;60.81;97120.16;10323354;28;20121;-49
2023/12/20 11:14:38;;;;;;;106.30;82.90;;;;;;;10.54;59.69;97092.94;10320933;28;20120;-48
2023/12/20 11:20:01;;;;;;;48.53;35.38;;;;;;;10.85;54.00;97089.97;10322072;28;20096;-48
2023/12/20 11:25:09;;;;;;;48.17;35.30;;;;;;;11.58;51.34;97082.03;10324911;28;20156;-48
2023/12/20 11:30:09;;;;;;;32.45;23.50;;;;;;;11.89;51.05;97036.44;10321446;28;20115;-49
2023/12/20 11:35:08;;;;;;;23.42;18.92;;;;;;;12.62;50.31;97067.19;10318986;28;20124;-49
2023/12/20 11:40:12;;;;;;;8.85;7.65;;;;;;;12.81;41.55;97032.97;10325571;28;20013;-49
2023/12/20 11:45:15;;;;;;;9.85;7.10;;;;;;;13.41;40.23;97049.84;10322360;28;20124;-49
2023/12/20 11:50:14;;;;;;;7.32;6.50;;;;;;;13.76;42.64;97018.59;10322626;28;20132;-50
2023/12/20 11:55:13;;;;;;;8.55;7.35;;;;;;;14.02;39.47;97031.88;10320236;28;20491;-49
2023/12/20 12:00:14;;;;;;;8.68;7.10;;;;;;;13.80;39.62;96963.75;10317299;28;20500;-49
2023/12/20 12:05:13;;;;;;;7.70;6.88;;;;;;;14.12;39.90;96996.78;10316771;28;20061;-49
2023/12/20 12:10:12;;;;;;;9.02;7.50;;;;;;;14.28;39.64;96992.84;10318968;28;20038;-49
2023/12/20 12:15:11;;;;;;;7.10;6.40;;;;;;;14.07;39.61;96954.31;10320939;28;20526;-52
2023/12/20 12:20:10;;;;;;;9.70;8.52;;;;;;;14.19;38.50;96972.25;10320391;28;20057;-49
2023/12/20 12:25:11;;;;;;;;;;;;;;;14.11;38.33;96972.47;10322542;28;20484;-49
2023/12/20 12:30:12;;;;;;;8.20;7.38;;;;;;;14.09;38.63;96966.44;10320911;28;19975;-50
2023/12/20 12:35:11;;;;;;;9.10;7.53;;;;;;;13.63;39.13;96889.44;10320318;28;20932;-49
2023/12/20 12:40:14;;;;;;;8.10;7.28;;;;;;;13.87;39.59;96940.09;10320373;28;20182;-50
2023/12/20 12:45:13;;;;;;;12.25;9.30;;;;;;;14.08;38.11;96967.34;10318645;28;20069;-51
2023/12/20 12:50:12;;;;;;;9.10;8.18;;;;;;;14.10;37.67;96943.78;10320909;28;20112;-51
2023/12/20 12:55:11;;;;;;;7.82;6.78;;;;;;;14.01;38.50;96925.78;10317326;28;20103;-49
2023/12/20 13:00:11;;;;;;;8.52;7.72;;;;;;;14.01;38.37;96942.31;10318835;28;20105;-49
2023/12/20 13:05:10;;;;;;;8.45;6.63;;;;;;;14.15;39.04;96944.53;10319545;28;20552;-49
2023/12/20 13:10:09;;;;;;;;;;;;;;;13.30;38.68;96807.78;10333061;28;20120;-50
2023/12/20 13:15:09;;;;;;;;;;;;;;;14.16;39.48;96951.47;10328597;28;20700;-57
2023/12/20 13:20:08;;;;;;;7.38;6.65;;;;;;;13.69;39.88;96898.88;10326138;28;19959;-51
2023/12/20 13:25:07;;;;;;;;;;;;;;;13.95;39.03;96952.91;10322829;28;20116;-50
2023/12/20 13:30:07;;;;;;;8.53;7.50;;;;;;;14.11;39.74;96954.19;10328807;28;20000;-50
2023/12/20 13:35:06;;;;;;;7.05;6.35;;;;;;;14.14;39.54;96953.25;10327174;28;20150;-50
2023/12/20 13:40:06;;;;;;;9.45;7.28;;;;;;;13.97;39.33;96931.09;10317088;28;20112;-49
2023/12/20 13:45:06;;;;;;;7.00;6.40;;;;;;;14.12;39.27;96940.25;10324612;28;20125;-50
2023/12/20 13:50:05;;;;;;;7.45;6.65;;;;;;;13.88;38.05;96910.47;10320754;28;20124;-50
2023/12/20 13:55:07;;;;;;;11.70;7.72;;;;;;;14.03;38.40;96937.91;10313699;28;20108;-49
2023/12/20 14:00:13;;;;;;;9.00;7.60;;;;;;;13.89;38.34;96930.47;10321352;28;20478;-49
2023/12/20 14:05:13;;;;;;;7.90;7.13;;;;;;;13.78;39.35;96940.34;10325029;28;20108;-50
2023/12/20 14:10:13;;;;;;;6.32;5.72;;;;;;;12.45;38.23;96794.31;10325384;28;20112;-50
2023/12/20 14:15:12;;;;;;;14.10;11.68;;;;;;;13.21;39.20;96938.28;10324486;28;20779;-51
2023/12/20 14:20:13;;;;;;;15.43;11.88;;;;;;;13.24;39.45;96943.44;10321784;28;20138;-50
2023/12/20 14:25:13;;;;;;;16.70;13.10;;;;;;;13.14;39.21;96948.88;10321307;28;20120;-50
2023/12/20 14:30:13;;;;;;;14.25;9.68;;;;;;;12.82;39.98;96917.53;10319903;28;20556;-52
2023/12/20 14:35:12;;;;;;;10.63;8.30;;;;;;;12.56;40.09;96913.78;10326830;28;20080;-50
2023/12/20 14:40:17;;;;;;;11.85;7.00;;;;;;;11.88;40.98;96834.56;10322660;28;20045;-50
2023/12/20 14:45:17;;;;;;;10.70;8.40;;;;;;;12.33;41.45;96926.44;10322259;28;20938;-50
2023/12/20 14:50:18;;;;;;;11.68;7.82;;;;;;;12.10;41.66;96917.31;10323078;28;20576;-50
2023/12/20 14:55:17;;;;;;;7.85;7.00;;;;;;;11.78;41.96;96892.84;10322895;28;20120;-50
2023/12/20 15:00:16;;;;;;;8.23;6.85;;;;;;;11.93;41.98;96945.41;10323620;28;20033;-50
2023/12/20 15:05:17;;;;;;;;;;;;;;;11.79;42.60;96941.31;10322735;28;20075;-49
2023/12/20 15:10:19;;;;;;;8.15;7.25;;;;;;;10.92;43.10;96855.44;10319686;28;19996;-50
2023/12/20 15:15:18;;;;;;;9.73;7.57;;;;;;;11.06;43.80;96903.66;10318710;28;20515;-49
2023/12/20 15:20:17;;;;;;;8.10;7.30;;;;;;;10.86;44.18;96881.44;10322726;28;20141;-49
2023/12/20 15:25:21;;;;;;;8.65;7.28;;;;;;;11.00;44.19;96921.03;10321331;28;20512;-52
2023/12/20 15:30:20;;;;;;;12.30;8.60;;;;;;;9.62;43.77;96707.00;10321224;28;20117;-50
2023/12/20 15:35:19;;;;;;;19.63;13.48;;;;;;;10.56;43.73;96894.00;10322443;28;20052;-50
2023/12/20 15:40:19;;;;;;;13.80;11.07;;;;;;;10.38;43.13;96840.69;10320415;28;20699;-51
2023/12/20 15:45:18;;;;;;;17.85;13.10;;;;;;;10.81;43.42;96902.28;10321863;28;20061;-52
2023/12/20 15:50:17;;;;;;;;;;;;;;;10.88;44.45;96935.97;10338802;28;20124;-49
2023/12/20 15:55:16;;;;;;;28.52;21.13;;;;;;;10.69;44.74;96931.03;10324510;28;19913;-50
2023/12/20 16:00:15;;;;;;;33.42;24.40;;;;;;;10.22;46.06;96895.38;10323694;28;20124;-50
2023/12/20 16:05:14;;;;;;;30.17;22.17;;;;;;;10.11;47.07;96913.66;10324084;28;20880;-49
2023/12/20 16:10:13;;;;;;;30.92;22.77;;;;;;;9.65;47.71;96881.41;10322876;28;20406;-49
2023/12/20 16:15:12;;;;;;;31.52;21.75;;;;;;;9.76;48.09;96928.75;10323878;28;20496;-50
2023/12/20 16:20:12;;;;;;;32.00;22.13;;;;;;;9.18;48.09;96843.88;10322903;28;20697;-49
2023/12/20 16:25:11;;;;;;;49.97;33.78;;;;;;;9.55;48.34;96929.81;10323924;28;20068;-49
2023/12/20 16:30:11;;;;;;;43.30;31.50;;;;;;;9.41;49.10;96912.72;10320534;28;20037;-49
2023/12/20 16:35:09;;;;;;;50.72;36.92;;;;;;;9.22;49.40;96919.78;10322268;28;20088;-50
2023/12/20 16:40:09;;;;;;;34.58;25.75;;;;;;;9.02;49.35;96882.00;10320761;28;20025;-49
2023/12/20 16:45:09;;;;;;;;;;;;;;;9.27;50.33;96923.16;10330638;28;20132;-49
2023/12/20 16:50:09;;;;;;;35.60;23.02;;;;;;;8.91;51.19;96909.69;10329162;28;20789;-49
2023/12/20 16:55:09;;;;;;;48.90;30.52;;;;;;;8.81;50.98;96944.25;10331053;28;20079;-49
2023/12/20 17:00:09;;;;;;;49.70;31.00;;;;;;;8.73;51.56;96941.72;10327026;28;20528;-49
2023/12/20 17:05:09;;;;;;;;;;;;;;;8.55;52.48;96939.25;10324122;28;20690;-49
2023/12/20 17:10:08;;;;;;;51.75;33.95;;;;;;;8.55;52.39;96931.50;10328466;28;20007;-50
2023/12/20 17:15:07;;;;;;;;;;;;;;;7.66;52.52;96785.56;10329303;28;20116;-50
2023/12/20 17:20:07;;;;;;;43.40;30.92;;;;;;;8.54;52.93;96932.38;10329960;28;20007;-50
2023/12/20 17:25:06;;;;;;;42.65;30.17;;;;;;;8.00;53.45;96866.31;10329381;28;20065;-49
2023/12/20 17:30:05;;;;;;;;;;;;;;;8.12;54.45;96942.91;10329397;28;20127;-49
2023/12/20 17:35:05;;;;;;;113.75;73.28;;;;;;;7.94;54.33;96930.94;10327977;28;19963;-49
2023/12/20 17:40:04;;;;;;;;;;;;;;;8.06;54.47;96956.75;10329759;28;20071;-49
2023/12/20 17:45:03;;;;;;;75.45;50.08;;;;;;;7.69;54.98;96908.66;10328584;28;19913;-50
2023/12/20 17:50:03;;;;;;;76.43;48.25;;;;;;;7.63;55.26;96907.78;10327600;28;20132;-49
2023/12/20 17:55:03;;;;;;;58.38;39.80;;;;;;;7.74;55.29;96945.66;10327737;28;20087;-49
2023/12/20 18:00:18;;;;;;;30.33;20.42;;;;;;;7.68;55.14;96967.16;10329798;28;20068;-49
2023/12/20 18:05:17;;;;;;;35.47;22.55;;;;;;;7.87;54.64;96963.69;10328905;28;20067;-48
2023/12/20 18:10:16;;;;;;;21.10;15.30;;;;;;;7.94;54.31;96959.34;10328859;28;20072;-49
2023/12/20 18:15:15;;;;;;;19.17;14.38;;;;;;;8.04;53.71;96966.22;10324720;28;20025;-49
2023/12/20 18:20:15;;;;;;;16.70;12.40;;;;;;;8.12;52.92;96945.50;10319259;28;20061;-49
2023/12/20 18:25:13;;;;;;;;;;;;;;;8.24;52.47;96954.94;10317800;28;20137;-50
2023/12/20 18:30:12;;;;;;;12.48;10.20;;;;;;;8.22;51.31;96917.88;10325234;28;19921;-49
2023/12/20 18:35:11;;;;;;;11.25;7.43;;;;;;;8.44;51.19;96929.84;10322618;28;20064;-48
2023/12/20 18:40:11;;;;;;;9.00;7.50;;;;;;;8.67;50.44;96940.03;10326247;28;20125;-50
2023/12/20 18:45:10;;;;;;;10.20;7.30;;;;;;;8.82;50.56;96945.97;10318463;28;20108;-49
2023/12/20 18:50:10;;;;;;;8.82;6.70;;;;;;;8.72;50.38;96925.34;10318184;28;20073;-49
2023/12/20 18:55:09;;;;;;;15.88;11.68;;;;;;;8.35;49.83;96862.69;10313535;28;20536;-53
2023/12/20 19:00:09;;;;;;;41.38;31.15;;;;;;;8.23;52.54;96901.53;10322003;28;20537;-50
2023/12/20 19:05:09;;;;;;;53.40;36.55;;;;;;;7.90;52.93;96906.00;10319907;28;20061;-51
2023/12/20 19:10:09;;;;;;;55.88;41.30;;;;;;;7.95;53.55;96949.91;10319380;28;20108;-49
2023/12/20 19:15:09;;;;;;;67.45;46.95;;;;;;;7.84;53.70;96960.25;10322884;28;20136;-50
2023/12/20 19:20:09;;;;;;;97.47;74.97;;;;;;;7.22;55.13;96924.22;10325351;28;20125;-50
2023/12/20 19:25:09;;;;;;;60.97;45.25;;;;;;;7.41;55.56;96943.13;10324947;28;20061;-50
2023/12/20 19:30:08;;;;;;;48.63;35.92;;;;;;;7.18;55.56;96961.19;10319777;28;20141;-49
2023/12/20 19:35:07;;;;;;;;;;;;;;;7.24;56.13;96966.34;10319220;28;20175;-51
2023/12/20 19:40:06;;;;;;;66.13;45.78;;;;;;;6.68;57.50;96956.88;10320164;28;20452;-51
2023/12/20 19:45:07;;;;;;;65.45;44.97;;;;;;;6.90;57.73;96946.56;10323654;28;20061;-50
2023/12/20 19:50:06;;;;;;;68.93;44.83;;;;;;;6.75;57.98;96925.09;10323962;28;20131;-51
2023/12/20 19:55:05;;;;;;;61.30;39.45;;;;;;;6.52;58.53;96934.50;10324072;28;20116;-49
2023/12/20 20:00:07;;;;;;;;;;;;;;;6.57;58.39;96956.00;10322932;28;20137;-49
2023/12/20 20:05:06;;;;;;;57.90;36.50;;;;;;;6.26;59.38;96929.28;10320928;28;19971;-51
2023/12/20 20:10:06;;;;;;;;;;;;;;;6.22;60.32;96950.75;10324146;28;20112;-49
2023/12/20 20:15:05;;;;;;;77.20;51.53;;;;;;;6.14;60.64;96961.00;10317115;28;20012;-49
2023/12/20 20:20:06;;;;;;;81.35;52.72;;;;;;;6.14;60.51;96961.00;10321909;28;20120;-49
2023/12/20 20:25:05;;;;;;;88.53;55.50;;;;;;;6.00;60.21;96924.03;10323245;28;20053;-49
2023/12/20 20:30:05;;;;;;;208.00;117.35;;;;;;;5.42;62.23;96880.91;10322062;28;20192;-55
2023/12/20 20:35:04;;;;;;;240.38;130.00;;;;;;;5.62;62.88;96922.16;10318279;28;20141;-50
2023/12/20 20:40:04;;;;;;;264.25;143.07;;;;;;;5.52;63.45;96934.97;10318754;28;21614;-49
2023/12/20 20:45:04;;;;;;;176.48;104.13;;;;;;;5.20;64.71;96923.63;10317181;28;21552;-49
2023/12/20 20:50:03;;;;;;;;;;;;;;;5.24;64.89;96927.94;10314520;28;20108;-50
2023/12/20 20:55:02;;;;;;;160.43;98.47;;;;;;;5.21;64.76;96928.78;10314390;28;19925;-50
2023/12/20 21:00:01;;;;;;;126.05;74.50;;;;;;;5.03;64.80;96926.94;10319031;28;20120;-49
2023/12/20 21:05:00;;;;;;;104.30;62.42;;;;;;;4.16;64.09;96736.97;10319642;28;20121;-50
2023/12/20 21:10:00;;;;;;;109.38;63.75;;;;;;;5.37;63.89;96924.63;10317959;28;20041;-49
2023/12/20 21:14:59;;;;;;;129.65;77.75;;;;;;;4.79;63.87;96821.34;10319921;28;20344;-49
2023/12/20 21:19:58;;;;;;;128.55;79.15;;;;;;;5.21;64.73;96933.09;10321469;28;20128;-49
2023/12/20 21:24:57;;;;;;;134.75;84.35;;;;;;;4.88;65.68;96908.81;10320131;28;20056;-52
2023/12/20 21:29:56;;;;;;;106.95;66.05;;;;;;;4.68;65.43;96886.38;10323435;28;20043;-51
2023/12/20 21:34:55;;;;;;;87.85;54.15;;;;;;;4.90;64.87;96923.41;10327440;28;20140;-51
2023/12/20 21:39:54;;;;;;;65.00;41.70;;;;;;;5.13;64.17;96905.59;10327485;28;20424;-49
2023/12/20 21:44:53;;;;;;;34.17;21.30;;;;;;;5.00;63.13;96861.81;10326846;28;20124;-49
2023/12/20 21:49:52;;;;;;;37.92;26.67;;;;;;;5.57;61.53;96908.41;10327045;28;20132;-49
2023/12/20 21:54:51;;;;;;;47.53;30.98;;;;;;;5.71;61.73;96899.03;10327379;28;20113;-50
2023/12/20 21:59:50;;;;;;;56.60;34.97;;;;;;;5.63;61.60;96869.84;10326441;28;20108;-49
2023/12/20 22:04:49;;;;;;;49.15;29.88;;;;;;;5.41;61.46;96843.16;10326016;28;20105;-49
2023/12/20 22:09:49;;;;;;;35.78;23.55;;;;;;;5.48;59.49;96853.47;10324814;28;20044;-52
2023/12/20 22:14:48;;;;;;;64.50;43.28;;;;;;;5.83;60.44;96893.94;10320901;28;20116;-52
2023/12/20 22:19:47;;;;;;;30.63;21.05;;;;;;;5.70;59.97;96885.31;10321360;28;20040;-51
2023/12/20 22:24:46;;;;;;;28.25;17.40;;;;;;;5.52;60.93;96898.97;10315122;28;20654;-49
2023/12/20 22:29:46;;;;;;;22.80;16.92;;;;;;;5.46;61.11;96865.50;10318901;28;20033;-48
2023/12/20 22:34:45;;;;;;;22.45;15.70;;;;;;;5.39;60.98;96875.72;10316843;28;20104;-49
2023/12/20 22:39:44;;;;;;;28.42;19.70;;;;;;;5.14;59.80;96798.44;10323024;28;20100;-50
2023/12/20 22:44:43;;;;;;;27.05;18.15;;;;;;;5.78;59.25;96869.03;10320443;28;20059;-50
2023/12/20 22:49:42;;;;;;;15.55;10.13;;;;;;;5.36;58.90;96796.81;10320239;28;20112;-51
2023/12/20 22:54:41;;;;;;;54.30;34.05;;;;;;;5.82;59.69;96858.75;10319032;28;20044;-51